Time;durP1;ratioP1;P1;durP2;ratioP2;P2;SDS_P1;SDS_P2;PMS_P1;PMS_P2;Temp;Humidity;BMP_temperature;BMP_pressure;BME280_temperature;BME280_humidity;BME280_pressure;Samples;Min_cycle;Max_cycle;Signal;HPM_P1;HPM_P2
2022/10/21 00:01:15;;;;;;;52.40;28.90;;;;;;;13.01;100.00;100521.91;5034748;28;20060;-51
2022/10/21 00:03:41;;;;;;;50.83;27.73;;;;;;;13.26;100.00;100583.28;5050079;28;20084;-56
2022/10/21 00:06:07;;;;;;;53.70;29.27;;;;;;;13.24;100.00;100579.00;5034463;28;20029;-56
2022/10/21 00:08:32;;;;;;;50.35;28.17;;;;;;;13.08;100.00;100565.63;5050052;28;20030;-56
2022/10/21 00:11:00;;;;;;;53.92;28.83;;;;;;;12.93;100.00;100531.97;5034772;28;20033;-57
2022/10/21 00:13:27;;;;;;;46.30;27.00;;;;;;;12.51;100.00;100462.69;5034669;28;20022;-57
2022/10/21 00:16:14;;;;;;;50.30;27.25;;;;;;;12.77;100.00;100508.06;5049927;28;20026;-58
2022/10/21 00:18:41;;;;;;;53.25;28.05;;;;;;;13.09;100.00;100571.78;5034108;28;20025;-57
2022/10/21 00:21:08;;;;;;;52.78;28.55;;;;;;;12.77;100.00;100510.72;5049132;28;20033;-57
2022/10/21 00:23:34;;;;;;;51.47;29.20;;;;;;;13.04;100.00;100568.47;5034293;28;20037;-56
2022/10/21 00:25:59;;;;;;;50.72;28.60;;;;;;;12.70;100.00;100530.41;5034363;28;20080;-54
2022/10/21 00:28:25;;;;;;;56.60;28.83;;;;;;;12.59;100.00;100492.22;5049713;28;20029;-57
2022/10/21 00:30:51;;;;;;;63.55;29.38;;;;;;;12.72;100.00;100515.38;5034269;28;20057;-53
2022/10/21 00:33:16;;;;;;;47.13;28.00;;;;;;;12.70;100.00;100503.13;5033948;28;20447;-57
2022/10/21 00:35:41;;;;;;;57.10;28.08;;;;;;;12.89;100.00;100544.50;5032694;28;20041;-58
2022/10/21 00:38:07;;;;;;;55.75;29.67;;;;;;;12.40;100.00;100484.28;5033945;28;20196;-55
2022/10/21 00:40:32;;;;;;;49.30;27.73;;;;;;;12.80;100.00;100554.63;5034003;28;20389;-58
2022/10/21 00:42:58;;;;;;;53.80;29.20;;;;;;;12.77;100.00;100565.31;5033928;28;20397;-55
2022/10/21 00:45:26;;;;;;;56.58;28.30;;;;;;;12.69;100.00;100559.53;5049104;28;20075;-58
2022/10/21 00:47:56;;;;;;;69.38;30.63;;;;;;;12.36;100.00;100509.09;5033528;28;20029;-51
2022/10/21 00:50:32;;;;;;;56.60;29.60;;;;;;;12.59;100.00;100559.09;5032837;28;20104;-55
2022/10/21 00:52:58;;;;;;;58.33;28.27;;;;;;;12.63;100.00;100544.81;5049271;28;20061;-56
2022/10/21 00:55:25;;;;;;;78.40;32.63;;;;;;;12.26;100.00;100473.47;5033679;28;20044;-55
2022/10/21 00:57:50;;;;;;;67.38;29.88;;;;;;;12.61;100.00;100538.75;5048775;28;20113;-55
2022/10/21 01:00:16;;;;;;;58.33;30.15;;;;;;;12.13;100.00;100459.13;5033478;28;20461;-59
2022/10/21 01:02:41;;;;;;;59.45;29.02;;;;;;;12.50;100.00;100538.38;5032090;28;20036;-53
2022/10/21 01:05:07;;;;;;;76.80;31.52;;;;;;;12.08;100.00;100476.97;5033671;28;20043;-54
2022/10/21 01:07:32;;;;;;;70.18;29.85;;;;;;;12.34;100.00;100524.16;5047902;28;20048;-57
2022/10/21 01:09:58;;;;;;;71.65;29.85;;;;;;;11.92;100.00;100460.94;5032908;28;20119;-53
2022/10/21 01:12:36;;;;;;;66.80;30.38;;;;;;;12.16;100.00;100517.03;5033012;28;20077;-56
2022/10/21 01:15:10;;;;;;;59.78;30.15;;;;;;;12.20;100.00;100524.75;5032974;28;20033;-57
2022/10/21 01:17:53;;;;;;;71.95;30.65;;;;;;;11.83;100.00;100470.09;5033378;28;20029;-57
2022/10/21 01:21:02;;;;;;;63.00;30.42;;;;;;;12.14;100.00;100526.81;5031792;28;20389;-57
2022/10/21 01:23:36;;;;;;;57.88;28.88;;;;;;;12.05;100.00;100517.53;5022097;28;20107;-53
2022/10/21 01:26:19;;;;;;;76.95;33.83;;;;;;;12.07;100.00;100530.63;5033087;28;20087;-53
2022/10/21 01:29:00;;;;;;;80.40;33.00;;;;;;;12.01;100.00;100515.06;5048456;28;20033;-57
2022/10/21 01:32:18;;;;;;;82.33;33.53;;;;;;;11.99;100.00;100507.25;5032596;28;20045;-57
2022/10/21 01:35:08;;;;;;;69.75;34.45;;;;;;;12.02;100.00;100514.16;5010823;28;20034;-58
2022/10/21 01:37:52;;;;;;;77.28;34.10;;;;;;;12.02;100.00;100500.97;4994590;28;20034;-57
2022/10/21 01:40:26;;;;;;;67.72;33.38;;;;;;;11.98;100.00;100492.31;5029097;28;20573;-56
2022/10/21 01:42:57;;;;;;;76.50;35.85;;;;;;;11.74;100.00;100430.94;5032804;28;20037;-52
2022/10/21 01:45:22;;;;;;;;;;;;;;;12.14;100.00;100489.88;5048745;28;20068;-55
2022/10/21 01:47:53;;;;;;;75.60;33.40;;;;;;;12.12;100.00;100495.22;5032796;28;19948;-57
2022/10/21 01:50:27;;;;;;;76.65;34.55;;;;;;;11.96;100.00;100474.84;5048369;28;20037;-55
2022/10/21 01:52:56;;;;;;;81.38;34.08;;;;;;;11.71;100.00;100428.44;5047917;28;20044;-56
2022/10/21 01:55:23;;;;;;;90.85;37.00;;;;;;;12.11;100.00;100492.66;5048292;28;20083;-58
2022/10/21 01:57:52;;;;;;;89.82;36.28;;;;;;;12.11;100.00;100498.75;5047899;28;20042;-55
2022/10/21 02:00:18;;;;;;;84.28;34.63;;;;;;;11.93;100.00;100465.31;5047721;28;20056;-55
2022/10/21 02:02:46;;;;;;;75.28;34.05;;;;;;;12.09;100.00;100497.13;5032434;28;20077;-55
2022/10/21 02:05:18;;;;;;;81.35;36.00;;;;;;;12.01;100.00;100470.22;5047801;28;20473;-59
2022/10/21 02:07:44;;;;;;;82.57;34.97;;;;;;;11.71;100.00;100417.91;5032508;28;20029;-56
2022/10/21 02:10:09;;;;;;;90.30;38.00;;;;;;;11.68;100.00;100412.72;5047818;28;20523;-55
2022/10/21 02:12:36;;;;;;;62.70;33.90;;;;;;;12.08;100.00;100479.59;5032545;28;20044;-56
2022/10/21 02:15:03;;;;;;;83.72;37.13;;;;;;;11.91;100.00;100439.91;5047694;28;20029;-55
2022/10/21 02:17:28;;;;;;;125.72;43.22;;;;;;;12.11;100.00;100461.81;5031021;28;20030;-57
2022/10/21 02:19:57;;;;;;;85.00;37.90;;;;;;;11.76;100.00;100402.72;5031821;28;20044;-56
2022/10/21 02:22:23;;;;;;;144.48;42.65;;;;;;;12.02;100.00;100464.03;5047001;28;20535;-52
2022/10/21 02:24:55;;;;;;;118.65;40.60;;;;;;;11.66;100.00;100400.53;5047805;28;20044;-56
2022/10/21 02:27:21;;;;;;;86.97;37.70;;;;;;;11.90;100.00;100451.38;5047731;28;20041;-53
2022/10/21 02:29:48;;;;;;;76.15;36.20;;;;;;;11.85;100.00;100457.69;5047298;28;20497;-55
2022/10/21 02:32:45;;;;;;;128.35;41.58;;;;;;;11.86;100.00;100463.84;5047326;28;20045;-54
2022/10/21 02:35:55;;;;;;;83.28;37.60;;;;;;;11.82;100.00;100459.66;5028050;28;20057;-57
2022/10/21 02:38:25;;;;;;;87.35;36.45;;;;;;;11.79;100.00;100452.69;5010079;28;20050;-55
2022/10/21 02:41:00;;;;;;;87.25;37.58;;;;;;;11.68;100.00;100433.81;5010038;28;20088;-56
2022/10/21 02:43:31;;;;;;;89.00;37.75;;;;;;;11.74;100.00;100446.78;5012817;28;20052;-55
2022/10/21 02:46:04;;;;;;;104.85;37.60;;;;;;;11.32;100.00;100386.16;5030842;28;20120;-56
2022/10/21 02:48:32;;;;;;;88.57;37.22;;;;;;;11.30;100.00;100388.00;5047459;28;20039;-55
2022/10/21 02:50:57;;;;;;;98.60;37.22;;;;;;;11.32;100.00;100395.88;5031839;28;20037;-56
2022/10/21 02:53:23;;;;;;;83.03;37.00;;;;;;;11.61;100.00;100449.97;5031771;28;20108;-54
2022/10/21 02:55:48;;;;;;;78.50;35.28;;;;;;;11.60;100.00;100451.75;5032152;28;20041;-59
2022/10/21 02:58:13;;;;;;;82.03;36.78;;;;;;;11.59;100.00;100452.66;5032112;28;20496;-56
2022/10/21 03:00:39;;;;;;;73.63;35.70;;;;;;;11.65;100.00;100452.41;5031995;28;20389;-56
2022/10/21 03:03:04;;;;;;;88.50;37.80;;;;;;;11.39;100.00;100392.03;5031896;28;20033;-55
2022/10/21 03:05:29;;;;;;;93.53;37.97;;;;;;;11.42;100.00;100384.00;5031845;28;20397;-55
2022/10/21 03:07:55;;;;;;;104.22;38.30;;;;;;;11.66;100.00;100416.34;5031717;28;20091;-61
2022/10/21 03:10:20;;;;;;;131.65;41.65;;;;;;;11.74;100.00;100438.88;5031917;28;20037;-55
2022/10/21 03:12:48;;;;;;;84.50;37.55;;;;;;;11.37;100.00;100390.41;5031923;28;20037;-56
2022/10/21 03:15:13;;;;;;;92.32;38.33;;;;;;;11.39;100.00;100381.50;5031856;28;20392;-57
2022/10/21 03:17:38;;;;;;;95.85;39.17;;;;;;;11.48;100.00;100378.47;5031955;28;20112;-55
2022/10/21 03:20:04;;;;;;;125.35;44.00;;;;;;;11.19;100.00;100334.06;5031749;28;20041;-56
2022/10/21 03:22:29;;;;;;;120.75;41.67;;;;;;;10.71;100.00;100255.41;5031659;28;20041;-55
2022/10/21 03:24:54;;;;;;;115.32;41.22;;;;;;;11.77;100.00;100437.88;5031889;28;20120;-57
2022/10/21 03:27:20;;;;;;;103.90;39.55;;;;;;;11.45;100.00;100381.22;5031767;28;20128;-57
2022/10/21 03:29:45;;;;;;;93.72;37.40;;;;;;;11.76;100.00;100434.38;5031445;28;20385;-55
2022/10/21 03:32:10;;;;;;;132.60;41.45;;;;;;;11.76;100.00;100439.63;5050243;28;20041;-58
2022/10/21 03:34:36;;;;;;;141.95;41.88;;;;;;;11.73;100.00;100438.94;5035120;28;20046;-59
2022/10/21 03:37:01;;;;;;;119.85;41.10;;;;;;;11.44;100.00;100379.50;5050715;28;20069;-57
2022/10/21 03:39:26;;;;;;;81.00;36.17;;;;;;;11.32;100.00;100355.50;5035320;28;20152;-57
2022/10/21 03:41:52;;;;;;;77.28;35.72;;;;;;;11.58;100.00;100408.78;5035030;28;20167;-53
2022/10/21 03:44:17;;;;;;;168.13;43.65;;;;;;;11.65;100.00;100422.53;5034889;28;20029;-57
2022/10/21 03:46:42;;;;;;;116.07;40.53;;;;;;;11.60;100.00;100413.97;5035058;28;20499;-55
2022/10/21 03:49:09;;;;;;;77.68;34.38;;;;;;;11.61;100.00;100413.06;5034706;28;20038;-53
2022/10/21 03:51:34;;;;;;;98.93;37.92;;;;;;;11.57;100.00;100409.72;5050285;28;20132;-55
2022/10/21 03:53:59;;;;;;;91.78;37.47;;;;;;;11.55;100.00;100414.19;5035036;28;20117;-56
2022/10/21 03:56:25;;;;;;;96.07;36.60;;;;;;;11.56;100.00;100407.13;5034869;28;20119;-56
2022/10/21 03:58:50;;;;;;;80.15;35.15;;;;;;;11.48;100.00;100412.72;5034852;28;20064;-57
2022/10/21 04:01:15;;;;;;;90.28;35.13;;;;;;;11.46;100.00;100409.31;5034689;28;20099;-59
2022/10/21 04:03:41;;;;;;;103.18;37.70;;;;;;;11.43;100.00;100414.72;5033428;28;20030;-53
2022/10/21 04:06:07;;;;;;;85.75;35.42;;;;;;;11.39;100.00;100407.84;5034402;28;20064;-56
2022/10/21 04:08:32;;;;;;;65.63;31.58;;;;;;;11.12;100.00;100369.50;5050053;28;20540;-56
2022/10/21 04:10:57;;;;;;;76.43;33.33;;;;;;;11.41;100.00;100403.38;5034898;28;20455;-57
2022/10/21 04:13:23;;;;;;;75.85;34.50;;;;;;;11.06;100.00;100354.78;5049950;28;20017;-57
2022/10/21 04:15:48;;;;;;;68.15;32.65;;;;;;;11.34;100.00;100406.34;5034559;28;20068;-54
2022/10/21 04:18:14;;;;;;;65.53;31.70;;;;;;;11.05;100.00;100363.63;5034699;28;20087;-58
2022/10/21 04:20:39;;;;;;;68.90;32.63;;;;;;;11.45;100.00;100433.94;5034512;28;20381;-55
2022/10/21 04:23:04;;;;;;;81.57;33.42;;;;;;;11.44;100.00;100431.38;5034230;28;20037;-56
2022/10/21 04:25:30;;;;;;;78.32;32.30;;;;;;;11.37;100.00;100424.66;5034419;28;20082;-55
2022/10/21 04:27:55;;;;;;;86.15;33.08;;;;;;;11.34;100.00;100435.31;5034456;28;20041;-58
2022/10/21 04:30:20;;;;;;;91.25;32.72;;;;;;;11.29;100.00;100431.09;5034288;28;20117;-56
2022/10/21 04:32:46;;;;;;;65.35;29.77;;;;;;;11.26;100.00;100425.97;5033993;28;20041;-54
2022/10/21 04:35:11;;;;;;;64.22;29.30;;;;;;;11.01;100.00;100369.06;5033953;28;20034;-56
2022/10/21 04:37:38;;;;;;;69.78;30.23;;;;;;;11.31;100.00;100407.31;5033868;28;20444;-56
2022/10/21 04:40:06;;;;;;;77.00;31.05;;;;;;;11.00;100.00;100368.25;5033934;28;20489;-52
2022/10/21 04:42:31;;;;;;;77.53;31.48;;;;;;;11.37;100.00;100430.78;5033837;28;20048;-56
2022/10/21 04:44:56;;;;;;;71.97;30.70;;;;;;;11.28;100.00;100420.63;5034071;28;20037;-60
2022/10/21 04:47:21;;;;;;;64.55;31.42;;;;;;;11.35;100.00;100437.91;5049261;28;20439;-55
2022/10/21 04:49:47;;;;;;;64.28;30.73;;;;;;;11.37;100.00;100433.41;5033542;28;20033;-56
2022/10/21 04:52:12;;;;;;;80.32;32.80;;;;;;;11.44;100.00;100439.28;5033886;28;20064;-58
2022/10/21 04:54:37;;;;;;;75.40;32.40;;;;;;;11.40;100.00;100430.66;5033809;28;20030;-58
2022/10/21 04:57:03;;;;;;;93.93;34.30;;;;;;;11.43;100.00;100432.28;5049230;28;20041;-59
2022/10/21 04:59:28;;;;;;;91.43;34.10;;;;;;;11.35;100.00;100432.63;5033724;28;20029;-58
2022/10/21 05:01:53;;;;;;;58.45;30.75;;;;;;;11.30;100.00;100426.69;5033570;28;20274;-55
2022/10/21 05:04:19;;;;;;;99.75;36.53;;;;;;;10.90;100.00;100366.91;5033481;28;20041;-54
2022/10/21 05:06:44;;;;;;;75.13;32.40;;;;;;;10.84;100.00;100369.78;5033643;28;20029;-57
2022/10/21 05:09:09;;;;;;;79.97;34.15;;;;;;;10.82;100.00;100373.41;5033487;28;20033;-58
2022/10/21 05:11:35;;;;;;;77.05;32.65;;;;;;;11.15;100.00;100432.56;5033541;28;20069;-58
2022/10/21 05:14:00;;;;;;;67.53;31.92;;;;;;;10.49;100.00;100331.72;5032198;28;20037;-55
2022/10/21 05:16:25;;;;;;;82.90;33.58;;;;;;;10.95;100.00;100406.19;5033288;28;20029;-56
2022/10/21 05:18:51;;;;;;;78.93;31.90;;;;;;;11.17;100.00;100431.63;5033158;28;20033;-57
2022/10/21 05:21:16;;;;;;;84.00;32.28;;;;;;;11.18;100.00;100429.81;5033478;28;20552;-55
2022/10/21 05:23:41;;;;;;;65.22;29.80;;;;;;;11.14;100.00;100425.63;5033400;28;20497;-54
2022/10/21 05:26:07;;;;;;;115.13;35.58;;;;;;;10.98;100.00;100403.44;5033115;28;20042;-55
2022/10/21 05:28:32;;;;;;;66.88;29.75;;;;;;;11.01;100.00;100419.13;5033114;28;20033;-56
2022/10/21 05:30:57;;;;;;;82.05;29.73;;;;;;;10.98;100.00;100435.91;5032753;28;20049;-53
2022/10/21 05:33:23;;;;;;;56.22;27.23;;;;;;;10.90;100.00;100414.28;5032956;28;20397;-57
2022/10/21 05:35:55;;;;;;;52.55;26.17;;;;;;;10.91;100.00;100418.66;5032829;28;20037;-56
2022/10/21 05:38:20;;;;;;;61.13;26.58;;;;;;;10.91;100.00;100423.91;5048393;28;20068;-56
2022/10/21 05:40:46;;;;;;;62.60;26.52;;;;;;;10.57;100.00;100373.50;5032815;28;20034;-56
2022/10/21 05:43:12;;;;;;;67.00;26.70;;;;;;;10.84;100.00;100432.97;5032822;28;20120;-57
2022/10/21 05:45:37;;;;;;;55.08;25.42;;;;;;;10.78;100.00;100424.44;5032772;28;20044;-57
2022/10/21 05:48:02;;;;;;;70.65;28.00;;;;;;;10.69;100.00;100415.16;5032568;28;20048;-54
2022/10/21 05:50:28;;;;;;;54.63;25.35;;;;;;;10.30;100.00;100358.81;5048214;28;20045;-54
2022/10/21 05:52:56;;;;;;;58.88;25.70;;;;;;;10.61;100.00;100425.97;5032494;28;20033;-53
2022/10/21 05:55:21;;;;;;;55.80;25.77;;;;;;;10.63;100.00;100415.38;5032526;28;20040;-54
2022/10/21 05:57:46;;;;;;;57.17;24.58;;;;;;;10.59;100.00;100409.41;5032494;28;20037;-56
2022/10/21 06:00:12;;;;;;;62.53;26.67;;;;;;;10.59;100.00;100408.53;5032756;28;20125;-58
2022/10/21 06:02:37;;;;;;;56.13;24.65;;;;;;;10.56;100.00;100417.41;5047707;28;20420;-59
2022/10/21 06:05:03;;;;;;;46.88;23.27;;;;;;;10.57;100.00;100405.97;5032542;28;20038;-55
2022/10/21 06:07:28;;;;;;;66.15;25.83;;;;;;;10.28;100.00;100382.53;5032501;28;20037;-55
2022/10/21 06:09:53;;;;;;;61.75;24.63;;;;;;;10.60;100.00;100421.63;5047860;28;20038;-57
2022/10/21 06:12:19;;;;;;;56.55;23.95;;;;;;;10.54;100.00;100416.59;5032328;28;20040;-58
2022/10/21 06:14:44;;;;;;;48.75;23.75;;;;;;;10.56;100.00;100419.19;5032504;28;20103;-59
2022/10/21 06:17:09;;;;;;;53.88;23.25;;;;;;;10.54;100.00;100413.09;5032161;28;20064;-55
2022/10/21 06:19:34;;;;;;;56.50;22.92;;;;;;;10.13;100.00;100348.94;5032185;28;20057;-56
2022/10/21 06:22:00;;;;;;;47.97;23.70;;;;;;;10.55;100.00;100422.72;5031194;28;20037;-59
2022/10/21 06:24:26;;;;;;;57.67;22.80;;;;;;;10.56;100.00;100425.31;5032261;28;20119;-54
2022/10/21 06:26:51;;;;;;;45.58;21.73;;;;;;;10.48;100.00;100419.47;5030399;28;20041;-54
2022/10/21 06:29:17;;;;;;;52.45;22.42;;;;;;;10.58;100.00;100426.09;5031337;28;20455;-54
2022/10/21 06:31:43;;;;;;;53.70;23.50;;;;;;;10.56;100.00;100422.69;5047260;28;20505;-55
2022/10/21 06:34:08;;;;;;;49.80;22.67;;;;;;;10.56;100.00;100412.16;5028173;28;20034;-57
2022/10/21 06:36:36;;;;;;;45.10;22.02;;;;;;;10.61;100.00;100411.97;5031580;28;20045;-61
2022/10/21 06:39:05;;;;;;;49.30;22.50;;;;;;;10.26;100.00;100342.28;5031758;28;20504;-53
2022/10/21 06:41:31;;;;;;;53.28;23.48;;;;;;;10.69;100.00;100409.88;5032024;28;20124;-59
2022/10/21 06:43:56;;;;;;;37.67;20.60;;;;;;;10.72;100.00;100413.25;5031580;28;20452;-58
2022/10/21 06:46:21;;;;;;;46.22;21.92;;;;;;;10.81;100.00;100424.34;5032027;28;20072;-58
2022/10/21 06:48:47;;;;;;;52.75;22.88;;;;;;;10.86;100.00;100425.03;5031787;28;20044;-57
2022/10/21 06:51:17;;;;;;;47.80;23.55;;;;;;;10.84;100.00;100408.41;5046792;28;20163;-59
2022/10/21 06:53:43;;;;;;;43.80;23.05;;;;;;;10.94;100.00;100423.81;5032109;28;20029;-56
2022/10/21 06:56:12;;;;;;;48.47;22.73;;;;;;;10.97;100.00;100421.03;5047386;28;20042;-59
2022/10/21 06:58:41;;;;;;;44.20;22.00;;;;;;;10.87;100.00;100409.16;5047033;28;20033;-56
2022/10/21 07:01:12;;;;;;;44.00;23.38;;;;;;;10.94;100.00;100415.91;5016500;28;20571;-54
2022/10/21 07:03:37;;;;;;;45.67;21.80;;;;;;;10.37;100.00;100308.53;5012060;28;20374;-56
2022/10/21 07:06:03;;;;;;;57.25;24.35;;;;;;;10.70;100.00;100366.84;5014714;28;20049;-56
2022/10/21 07:08:29;;;;;;;47.78;23.58;;;;;;;11.05;100.00;100418.09;5014609;28;20401;-55
2022/10/21 07:10:54;;;;;;;45.30;22.35;;;;;;;10.78;100.00;100374.44;5045746;28;20091;-56
2022/10/21 07:13:20;;;;;;;49.83;24.25;;;;;;;10.79;100.00;100363.00;5035290;28;20443;-55
2022/10/21 07:15:46;;;;;;;56.47;24.08;;;;;;;10.92;100.00;100374.72;5034480;28;20034;-55
2022/10/21 07:18:11;;;;;;;52.65;23.63;;;;;;;11.19;100.00;100429.78;5033762;28;20415;-55
2022/10/21 07:20:36;;;;;;;51.78;24.35;;;;;;;11.41;100.00;100455.22;5035426;28;20084;-55
2022/10/21 07:23:02;;;;;;;51.00;24.77;;;;;;;11.40;100.00;100449.09;5034386;28;20076;-55
2022/10/21 07:25:27;;;;;;;49.60;24.20;;;;;;;11.32;100.00;100453.84;5035001;28;20044;-54
2022/10/21 07:27:53;;;;;;;53.53;26.23;;;;;;;11.56;100.00;100478.28;5020471;28;20026;-51
2022/10/21 07:30:18;;;;;;;63.28;26.88;;;;;;;11.60;100.00;100475.47;5015123;28;20409;-55
2022/10/21 07:32:43;;;;;;;57.63;26.60;;;;;;;11.19;100.00;100397.28;5023860;28;20045;-53
2022/10/21 07:35:08;;;;;;;58.15;25.67;;;;;;;11.44;100.00;100445.41;5015525;28;20042;-58
2022/10/21 07:37:34;;;;;;;52.83;25.27;;;;;;;11.72;100.00;100480.25;5047174;28;20077;-55
2022/10/21 07:39:59;;;;;;;57.05;26.05;;;;;;;11.65;100.00;100470.00;5033984;28;20029;-55
2022/10/21 07:42:26;;;;;;;55.08;26.50;;;;;;;11.72;100.00;100475.00;5034750;28;20033;-55
2022/10/21 07:44:56;;;;;;;41.22;24.08;;;;;;;11.83;100.00;100471.88;5033383;28;20040;-58
2022/10/21 07:47:21;;;;;;;49.75;25.83;;;;;;;11.92;100.00;100479.41;5034245;28;20472;-58
2022/10/21 07:49:46;;;;;;;50.70;27.27;;;;;;;11.95;100.00;100475.75;5034484;28;20033;-56
2022/10/21 07:52:12;;;;;;;49.25;27.35;;;;;;;11.93;100.00;100461.81;5034818;28;20036;-53
2022/10/21 07:54:37;;;;;;;51.15;26.95;;;;;;;12.09;100.00;100487.44;5034920;28;20037;-56
2022/10/21 07:57:02;;;;;;;52.80;27.25;;;;;;;12.03;100.00;100461.31;5034779;28;20125;-56
2022/10/21 07:59:28;;;;;;;57.10;25.95;;;;;;;11.55;100.00;100379.94;5034624;28;20029;-56
2022/10/21 08:01:53;;;;;;;47.42;25.80;;;;;;;11.92;100.00;100436.34;5034481;28;20038;-53
2022/10/21 08:04:23;;;;;;;50.15;25.77;;;;;;;12.27;100.00;100478.69;5034669;28;20037;-52
2022/10/21 08:06:49;;;;;;;48.00;25.38;;;;;;;12.36;100.00;100474.78;5034619;28;20111;-58
2022/10/21 08:09:15;;;;;;;42.33;23.52;;;;;;;12.32;100.00;100467.94;5033164;28;20037;-51
2022/10/21 08:11:40;;;;;;;40.25;22.70;;;;;;;12.36;100.00;100473.00;5034674;28;20077;-56
2022/10/21 08:14:07;;;;;;;50.05;24.30;;;;;;;12.49;100.00;100486.53;5034440;28;20420;-56
2022/10/21 08:16:33;;;;;;;44.92;23.73;;;;;;;12.52;100.00;100478.44;5049687;28;20087;-59
2022/10/21 08:18:59;;;;;;;48.55;24.02;;;;;;;12.18;100.00;100407.88;5033175;28;20124;-56
2022/10/21 08:21:25;;;;;;;44.13;23.20;;;;;;;12.58;100.00;100464.13;5049321;28;20034;-54
2022/10/21 08:23:51;;;;;;;42.40;22.75;;;;;;;12.22;100.00;100404.19;5034074;28;20036;-58
2022/10/21 08:26:16;;;;;;;41.65;22.45;;;;;;;12.63;100.00;100465.63;5034224;28;20041;-55
2022/10/21 08:28:42;;;;;;;41.47;22.73;;;;;;;12.47;100.00;100426.78;5034111;28;20120;-55
2022/10/21 08:31:13;;;;;;;44.97;23.02;;;;;;;12.40;100.00;100413.03;5034225;28;20060;-54
2022/10/21 08:33:38;;;;;;;42.47;22.35;;;;;;;12.77;100.00;100472.88;5034044;28;20041;-56
2022/10/21 08:36:11;;;;;;;47.33;24.20;;;;;;;12.80;100.00;100457.75;5032903;28;20111;-56
2022/10/21 08:38:36;;;;;;;44.28;23.10;;;;;;;12.92;100.00;100469.50;5034109;28;20033;-53
2022/10/21 08:41:10;;;;;;;43.17;24.20;;;;;;;13.06;100.00;100474.13;5033839;28;20037;-55
2022/10/21 08:43:36;;;;;;;46.17;23.92;;;;;;;12.83;100.00;100415.34;5034115;28;20041;-56
2022/10/21 08:46:14;;;;;;;49.88;25.88;;;;;;;13.04;100.00;100442.50;5033950;28;20072;-56
2022/10/21 08:48:47;;;;;;;39.92;23.10;;;;;;;13.40;100.00;100483.00;5031388;28;20056;-51
2022/10/21 08:51:22;;;;;;;35.65;22.27;;;;;;;13.09;100.00;100418.53;5030488;28;20033;-57
2022/10/21 08:53:47;;;;;;;44.55;23.83;;;;;;;13.36;100.00;100435.66;5031686;28;20079;-53
2022/10/21 08:56:14;;;;;;;37.35;22.10;;;;;;;13.28;100.00;100416.69;5031995;28;20025;-55
2022/10/21 08:58:40;;;;;;;37.22;22.20;;;;;;;13.53;100.00;100455.03;5028780;28;20116;-55
2022/10/21 09:01:27;;;;;;;33.10;21.30;;;;;;;13.67;100.00;100482.56;5024843;28;20128;-57
2022/10/21 09:04:02;;;;;;;36.28;22.55;;;;;;;13.43;100.00;100429.13;5032894;28;20488;-57
2022/10/21 09:06:38;;;;;;;40.15;23.40;;;;;;;13.76;100.00;100475.03;5048676;28;20132;-57
2022/10/21 09:09:33;;;;;;;35.70;21.52;;;;;;;13.80;100.00;100470.44;5032910;28;20515;-58
2022/10/21 09:12:11;;;;;;;34.28;20.40;;;;;;;13.91;100.00;100468.94;5032949;28;20448;-56
2022/10/21 09:14:48;;;;;;;34.47;20.48;;;;;;;13.99;100.00;100461.47;5032911;28;20033;-53
2022/10/21 09:17:25;;;;;;;35.70;20.23;;;;;;;14.07;100.00;100467.19;5032928;28;20550;-55
2022/10/21 09:20:28;;;;;;;29.33;19.45;;;;;;;14.15;100.00;100480.06;5032933;28;20037;-55
2022/10/21 09:23:29;;;;;;;33.80;21.63;;;;;;;14.33;100.00;100470.31;5032774;28;20475;-57
2022/10/21 09:26:03;;;;;;;32.97;21.85;;;;;;;14.40;100.00;100469.03;5001345;28;20060;-54
2022/10/21 09:28:29;;;;;;;30.80;20.10;;;;;;;14.28;100.00;100433.44;5032378;28;20057;-52
2022/10/21 09:30:56;;;;;;;32.50;19.80;;;;;;;14.68;100.00;100484.28;5031266;28;20061;-52
2022/10/21 09:33:30;;;;;;;35.70;18.60;;;;;;;14.61;100.00;100481.97;5028037;28;20045;-59
2022/10/21 09:36:07;;;;;;;30.00;18.77;;;;;;;14.55;100.00;100444.38;5029857;28;20022;-51
2022/10/21 09:38:59;;;;;;;29.90;17.55;;;;;;;14.90;100.00;100471.56;5032940;28;20075;-54
2022/10/21 09:41:30;;;;;;;27.98;18.10;;;;;;;14.70;100.00;100424.13;5047984;28;20076;-57
2022/10/21 09:43:55;;;;;;;25.10;15.32;;;;;;;14.98;100.00;100475.47;5028211;28;20124;-55
2022/10/21 09:46:21;;;;;;;27.58;16.25;;;;;;;14.73;100.00;100408.06;5032324;28;20076;-57
2022/10/21 09:48:49;;;;;;;26.38;15.20;;;;;;;15.23;100.00;100474.97;5031304;28;20033;-53
2022/10/21 09:51:20;;;;;;;33.22;15.98;;;;;;;15.32;100.00;100473.59;5031984;28;20041;-55
2022/10/21 09:54:13;;;;;;;28.23;14.23;;;;;;;15.46;100.00;100458.56;5016218;28;20415;-55
2022/10/21 09:56:45;;;;;;;24.20;12.73;;;;;;;15.69;100.00;100444.84;5032148;28;20119;-57
2022/10/21 09:59:17;;;;;;;17.77;10.85;;;;;;;15.83;100.00;100451.09;5031136;28;20160;-56
2022/10/21 10:01:43;;;;;;;16.42;10.07;;;;;;;15.87;100.00;100464.13;5024174;28;20034;-54
2022/10/21 10:04:23;;;;;;;14.25;9.52;;;;;;;16.03;100.00;100467.53;5030947;28;20436;-56
2022/10/21 10:06:48;;;;;;;15.75;9.48;;;;;;;16.13;100.00;100459.88;5030858;28;20036;-57
2022/10/21 10:09:14;;;;;;;20.23;10.25;;;;;;;16.24;100.00;100473.34;5027655;28;20410;-55
2022/10/21 10:12:03;;;;;;;22.08;9.57;;;;;;;16.53;100.00;100466.22;5031593;28;20277;-57
2022/10/21 10:14:34;;;;;;;13.02;8.57;;;;;;;16.25;100.00;100411.34;5031032;28;20033;-56
2022/10/21 10:17:18;;;;;;;15.77;8.80;;;;;;;16.69;100.00;100464.38;5031859;28;20032;-55
2022/10/21 10:20:03;;;;;;;14.18;7.82;;;;;;;16.80;100.00;100446.78;5031961;28;20441;-53
2022/10/21 10:22:30;;;;;;;13.15;6.70;;;;;;;17.06;100.00;100450.41;5031628;28;20063;-55
2022/10/21 10:25:24;;;;;;;10.05;6.65;;;;;;;17.21;100.00;100408.66;5030604;28;20044;-56
2022/10/21 10:27:53;;;;;;;8.48;5.70;;;;;;;17.92;100.00;100452.56;5016657;28;20030;-53
2022/10/21 10:30:20;;;;;;;10.02;5.50;;;;;;;18.73;100.00;100436.22;5027089;28;20041;-55
2022/10/21 10:32:46;;;;;;;5.80;5.07;;;;;;;19.71;100.00;100446.66;5039361;28;20120;-51
2022/10/21 10:35:32;;;;;;;7.80;4.68;;;;;;;20.83;100.00;100491.28;5047037;28;20443;-52
2022/10/21 10:37:58;;;;;;;8.48;4.65;;;;;;;21.57;100.00;100511.97;5003906;28;20026;-56
2022/10/21 10:40:38;;;;;;;10.82;4.72;;;;;;;21.80;100.00;100530.47;5029102;28;20026;-53
2022/10/21 10:43:25;;;;;;;10.30;3.93;;;;;;;21.55;100.00;100481.78;5033390;28;20033;-51
2022/10/21 10:45:53;;;;;;;8.73;3.97;;;;;;;22.07;100.00;100540.75;5035615;28;20457;-52
2022/10/21 10:48:22;;;;;;;7.57;3.38;;;;;;;22.48;100.00;100537.19;5030878;28;20136;-55
2022/10/21 10:50:48;;;;;;;6.72;3.38;;;;;;;22.71;100.00;100492.31;5028139;28;20029;-53
2022/10/21 10:53:58;;;;;;;7.00;3.25;;;;;;;23.78;100.00;100548.84;5035506;28;20034;-59
2022/10/21 10:56:27;;;;;;;7.65;2.83;;;;;;;24.60;100.00;100561.66;4973974;28;20034;-52
2022/10/21 10:59:01;;;;;;;6.75;2.90;;;;;;;24.40;100.00;100527.69;5023554;28;20065;-52
2022/10/21 11:01:30;;;;;;;8.00;3.42;;;;;;;23.92;100.00;100560.03;5032195;28;20033;-54
2022/10/21 11:04:10;;;;;;;6.25;2.92;;;;;;;23.61;100.00;100550.41;5050834;28;20473;-57
2022/10/21 11:06:59;;;;;;;5.47;2.50;;;;;;;22.71;100.00;100543.28;5035341;28;20112;-54
2022/10/21 11:09:25;;;;;;;6.97;3.10;;;;;;;21.95;100.00;100535.59;5035187;28;20060;-52
2022/10/21 11:11:55;;;;;;;4.88;2.80;;;;;;;21.29;100.00;100522.28;5035235;28;20143;-53